createdAt,value
2022-08-29T00:01:00.715Z,17.96
2022-08-29T00:04:06.619Z,17.91
2022-08-29T00:07:09.320Z,17.95
2022-08-29T00:10:12.256Z,17.90
2022-08-29T00:13:16.204Z,17.93
2022-08-29T00:16:19.034Z,17.90
2022-08-29T00:19:23.133Z,17.84
2022-08-29T00:22:25.823Z,17.76
2022-08-29T00:25:28.775Z,17.67
2022-08-29T00:28:31.584Z,17.61
2022-08-29T00:31:34.321Z,17.60
2022-08-29T00:34:38.470Z,17.60
2022-08-29T00:37:41.713Z,17.53
2022-08-29T00:40:51.466Z,17.51
2022-08-29T00:43:54.803Z,17.48
2022-08-29T00:46:58.793Z,17.45
2022-08-29T00:50:07.699Z,17.48
2022-08-29T00:53:13.151Z,17.46
2022-08-29T00:56:18.253Z,17.47
2022-08-29T00:59:22.929Z,17.43
2022-08-29T01:02:29.226Z,17.38
2022-08-29T01:05:33.051Z,17.35
2022-08-29T01:08:36.170Z,17.35
2022-08-29T01:11:56.442Z,17.30
2022-08-29T01:15:02.309Z,17.26
2022-08-29T01:18:05.952Z,17.24
2022-08-29T01:21:21.079Z,17.20
2022-08-29T01:24:31.445Z,17.16
2022-08-29T01:27:36.445Z,17.10
2022-08-29T01:30:57.692Z,17.00
2022-08-29T01:34:00.497Z,16.99
2022-08-29T01:37:06.177Z,16.98
2022-08-29T01:40:11.722Z,16.96
2022-08-29T01:43:14.472Z,16.90
2022-08-29T01:46:19.459Z,16.83
2022-08-29T01:49:23.252Z,16.85
2022-08-29T01:52:25.883Z,16.84
2022-08-29T01:55:29.950Z,16.85
2022-08-29T01:58:32.665Z,16.86
2022-08-29T02:01:38.705Z,16.84
2022-08-29T02:04:41.388Z,16.84
2022-08-29T02:07:44.472Z,16.83
2022-08-29T02:10:48.353Z,16.74
2022-08-29T02:13:53.373Z,16.72
2022-08-29T02:16:56.164Z,16.70
2022-08-29T02:19:59.137Z,16.72
2022-08-29T02:23:01.730Z,16.76
2022-08-29T02:26:06.699Z,16.74
2022-08-29T02:29:09.713Z,16.70
2022-08-29T02:32:14.512Z,16.67
2022-08-29T02:35:17.820Z,16.62
2022-08-29T02:38:20.484Z,16.66
2022-08-29T02:41:24.715Z,16.61
2022-08-29T02:44:27.361Z,16.61
2022-08-29T02:47:30.244Z,16.52
2022-08-29T02:50:32.885Z,16.53
2022-08-29T02:53:35.405Z,16.47
2022-08-29T02:56:39.442Z,16.44
2022-08-29T02:59:42.061Z,16.36
2022-08-29T03:02:45.961Z,16.41
2022-08-29T03:05:48.916Z,16.38
2022-08-29T03:08:51.934Z,16.35
2022-08-29T03:11:58.713Z,16.33
2022-08-29T03:15:01.374Z,16.31
2022-08-29T03:18:04.186Z,16.30
2022-08-29T03:21:07.307Z,16.29
2022-08-29T03:24:09.935Z,16.26
2022-08-29T03:27:14.053Z,16.27
2022-08-29T03:30:18.714Z,16.26
2022-08-29T03:33:21.467Z,16.19
2022-08-29T03:36:27.132Z,16.17
2022-08-29T03:39:29.875Z,16.16
2022-08-29T03:42:34.005Z,16.11
2022-08-29T03:45:36.606Z,16.07
2022-08-29T03:48:39.262Z,16.06
2022-08-29T03:51:42.370Z,16.03
2022-08-29T03:54:44.928Z,16.04
2022-08-29T03:57:49.198Z,16.02
2022-08-29T04:00:51.829Z,16.00
2022-08-29T04:03:54.587Z,15.92
2022-08-29T04:06:57.283Z,15.99
2022-08-29T04:10:00.520Z,15.97
2022-08-29T04:13:05.873Z,15.91
2022-08-29T04:16:11.294Z,15.90
2022-08-29T04:19:14.435Z,15.87
2022-08-29T04:22:17.065Z,15.78
2022-08-29T04:25:20.145Z,15.79
2022-08-29T04:28:24.453Z,15.75
2022-08-29T04:31:27.187Z,15.79
2022-08-29T04:34:30.351Z,15.73
2022-08-29T04:37:33.735Z,15.72
2022-08-29T04:40:38.463Z,15.66
2022-08-29T04:43:42.658Z,15.73
2022-08-29T04:46:45.306Z,15.82
2022-08-29T04:49:49.717Z,15.80
2022-08-29T04:52:57.384Z,15.76
2022-08-29T04:56:02.342Z,15.80
2022-08-29T04:59:06.560Z,15.89
2022-08-29T05:02:10.027Z,15.93
2022-08-29T05:05:14.888Z,15.95
2022-08-29T05:08:18.072Z,15.96
2022-08-29T05:11:22.911Z,16.02
2022-08-29T05:14:27.236Z,16.06
2022-08-29T05:17:29.888Z,16.07
2022-08-29T05:20:32.595Z,16.20
2022-08-29T05:23:35.903Z,16.32
2022-08-29T05:26:41.372Z,16.42
2022-08-29T05:29:47.764Z,16.50
2022-08-29T05:32:51.999Z,16.58
2022-08-29T05:35:54.892Z,16.67
2022-08-29T05:38:57.683Z,16.75
2022-08-29T05:42:00.694Z,16.81
2022-08-29T05:45:06.446Z,16.86
2022-08-29T05:48:10.217Z,16.95
2022-08-29T05:51:17.321Z,17.05
2022-08-29T05:54:19.977Z,17.10
2022-08-29T05:57:26.373Z,17.18
2022-08-29T06:00:30.307Z,17.30
2022-08-29T06:03:33.250Z,17.37
2022-08-29T06:06:36.165Z,17.49
2022-08-29T06:09:40.219Z,17.58
2022-08-29T06:12:42.834Z,17.69
2022-08-29T06:15:46.866Z,17.92
2022-08-29T06:18:49.690Z,18.39
2022-08-29T06:21:52.840Z,19.14
2022-08-29T06:24:57.585Z,19.65
2022-08-29T06:28:00.553Z,19.10
2022-08-29T06:31:08.844Z,18.84
2022-08-29T06:34:11.797Z,18.80
2022-08-29T06:37:14.454Z,18.83
2022-08-29T06:40:17.295Z,18.90
2022-08-29T06:43:19.953Z,18.96
2022-08-29T06:46:26.958Z,19.06
2022-08-29T06:49:29.863Z,19.22
2022-08-29T06:52:32.391Z,19.38
2022-08-29T06:55:35.948Z,19.54
2022-08-29T06:58:38.650Z,19.72
2022-08-29T07:01:43.753Z,19.76
2022-08-29T07:04:46.447Z,19.90
2022-08-29T07:07:49.268Z,20.04
2022-08-29T07:10:51.963Z,20.14
2022-08-29T07:13:57.085Z,20.24
2022-08-29T07:17:01.027Z,20.26
2022-08-29T07:20:05.012Z,20.38
2022-08-29T07:23:08.716Z,20.47
2022-08-29T07:26:14.365Z,20.55
2022-08-29T07:29:19.901Z,20.58
2022-08-29T07:32:26.027Z,20.67
2022-08-29T07:35:30.867Z,20.77
2022-08-29T07:38:34.279Z,20.88
2022-08-29T07:41:39.177Z,21.00
2022-08-29T07:44:41.716Z,21.08
2022-08-29T07:47:46.579Z,21.16
2022-08-29T07:50:49.982Z,21.21
2022-08-29T07:53:53.058Z,21.33
2022-08-29T07:56:57.462Z,21.57
2022-08-29T08:00:01.558Z,21.80
2022-08-29T08:03:06.795Z,21.98
2022-08-29T08:06:11.076Z,22.15
2022-08-29T08:09:15.265Z,22.24
2022-08-29T08:12:17.938Z,22.27
2022-08-29T08:15:21.961Z,22.36
2022-08-29T08:18:26.464Z,22.41
2022-08-29T08:21:29.344Z,22.66
2022-08-29T08:24:32.664Z,22.83
2022-08-29T08:27:38.105Z,22.91
2022-08-29T08:30:44.276Z,23.19
2022-08-29T08:33:48.466Z,23.27
2022-08-29T08:36:51.097Z,23.46
2022-08-29T08:39:57.178Z,23.61
2022-08-29T08:43:02.766Z,23.76
2022-08-29T08:46:05.474Z,24.11
2022-08-29T08:49:13.794Z,24.03
2022-08-29T08:52:20.577Z,24.15
2022-08-29T08:55:30.303Z,24.37
2022-08-29T08:58:34.649Z,24.33
2022-08-29T09:01:41.882Z,24.24
2022-08-29T09:04:54.646Z,24.48
2022-08-29T09:08:01.816Z,24.72
2022-08-29T09:11:11.282Z,24.83
2022-08-29T09:14:23.572Z,25.08
2022-08-29T09:17:30.461Z,25.25
2022-08-29T09:20:41.375Z,25.29
2022-08-29T09:23:46.334Z,25.48
2022-08-29T09:26:49.629Z,25.63
2022-08-29T09:29:56.858Z,25.65
2022-08-29T09:33:02.639Z,25.46
2022-08-29T09:36:07.040Z,25.57
2022-08-29T09:39:22.489Z,25.78
2022-08-29T09:42:25.044Z,25.87
2022-08-29T09:45:28.178Z,25.94
2022-08-29T09:48:35.319Z,25.92
2022-08-29T09:51:41.024Z,26.01
2022-08-29T09:54:44.812Z,26.19
2022-08-29T09:57:52.415Z,26.52
2022-08-29T10:01:01.723Z,26.56
2022-08-29T10:04:06.751Z,26.37
2022-08-29T10:07:14.720Z,26.93
2022-08-29T10:10:19.993Z,26.72
2022-08-29T10:13:28.969Z,27.00
2022-08-29T10:16:40.366Z,27.33
2022-08-29T10:19:43.865Z,27.64
2022-08-29T10:22:52.860Z,27.70
2022-08-29T10:25:56.326Z,27.99
2022-08-29T10:29:03.964Z,27.84
2022-08-29T10:32:11.749Z,28.09
2022-08-29T10:35:19.545Z,28.40
2022-08-29T10:38:36.883Z,28.13
2022-08-29T10:41:54.815Z,28.55
2022-08-29T10:45:06.382Z,28.95
2022-08-29T10:48:14.255Z,29.14
2022-08-29T10:51:23.351Z,29.20
2022-08-29T10:54:32.813Z,28.98
2022-08-29T10:57:44.207Z,28.63
2022-08-29T11:00:48.754Z,29.29
2022-08-29T11:03:59.013Z,29.46
2022-08-29T11:07:06.068Z,29.63
2022-08-29T11:10:12.138Z,29.88
2022-08-29T11:13:19.331Z,29.64
2022-08-29T11:16:28.632Z,29.47
2022-08-29T11:19:33.805Z,29.60
2022-08-29T11:22:40.845Z,28.22
2022-08-29T11:25:45.392Z,28.42
2022-08-29T11:28:57.208Z,28.89
2022-08-29T11:32:10.406Z,28.99
2022-08-29T11:35:20.619Z,29.44
2022-08-29T11:38:53.111Z,29.85
2022-08-29T11:41:59.099Z,29.87
2022-08-29T11:45:02.536Z,29.38
2022-08-29T11:48:21.037Z,29.49
2022-08-29T11:51:36.242Z,29.79
2022-08-29T11:54:56.483Z,29.72
2022-08-29T11:58:46.224Z,29.14
2022-08-29T12:02:02.008Z,29.26
2022-08-29T12:05:07.122Z,29.28
2022-08-29T12:08:36.186Z,29.54
2022-08-29T12:12:16.915Z,29.49
2022-08-29T12:15:55.263Z,29.73
2022-08-29T12:19:00.130Z,30.01
2022-08-29T12:22:02.795Z,30.69
2022-08-29T12:25:29.998Z,31.17
2022-08-29T12:28:39.228Z,31.15
2022-08-29T12:32:18.246Z,30.98
2022-08-29T12:35:31.777Z,31.37
2022-08-29T12:38:42.407Z,31.51
2022-08-29T12:42:04.821Z,31.81
2022-08-29T12:45:13.053Z,31.58
2022-08-29T12:48:18.335Z,31.28
2022-08-29T12:51:40.723Z,29.88
2022-08-29T12:54:45.908Z,30.33
2022-08-29T12:57:48.855Z,34.32
2022-08-29T13:00:53.732Z,41.09
2022-08-29T13:04:02.514Z,44.13
2022-08-29T13:07:08.282Z,43.84
2022-08-29T13:10:19.277Z,45.12
2022-08-29T13:13:23.596Z,45.82
2022-08-29T13:16:30.105Z,47.50
2022-08-29T13:19:32.790Z,48.20
2022-08-29T13:22:36.806Z,44.88
2022-08-29T13:25:45.997Z,39.19
2022-08-29T13:28:51.716Z,38.63
2022-08-29T13:32:12.267Z,38.44
2022-08-29T13:35:21.041Z,38.71
2022-08-29T13:38:27.343Z,39.72
2022-08-29T13:41:30.221Z,36.44
2022-08-29T13:44:36.113Z,40.76
2022-08-29T13:47:57.041Z,39.32
2022-08-29T13:51:03.410Z,40.81
2022-08-29T13:54:10.535Z,41.17
2022-08-29T13:57:15.099Z,47.04
2022-08-29T14:00:19.081Z,49.81
2022-08-29T14:03:35.343Z,53.71
2022-08-29T14:06:38.177Z,52.49
2022-08-29T14:09:44.407Z,51.35
2022-08-29T14:12:47.680Z,50.07
2022-08-29T14:15:50.296Z,45.81
2022-08-29T14:18:53.727Z,38.01
2022-08-29T14:21:59.076Z,35.44
2022-08-29T14:25:03.282Z,33.55
2022-08-29T14:28:05.978Z,33.05
2022-08-29T14:31:09.019Z,33.17
2022-08-29T14:34:12.322Z,43.44
2022-08-29T14:37:15.125Z,47.21
2022-08-29T14:40:21.871Z,47.44
2022-08-29T14:43:24.892Z,49.25
2022-08-29T14:46:28.830Z,51.17
2022-08-29T14:49:32.038Z,49.25
2022-08-29T14:52:34.759Z,48.60
2022-08-29T14:55:39.045Z,50.75
2022-08-29T14:58:41.822Z,51.61
2022-08-29T15:01:44.637Z,50.92
2022-08-29T15:04:51.509Z,50.26
2022-08-29T15:07:54.349Z,53.48
2022-08-29T15:10:58.507Z,54.24
2022-08-29T15:14:04.368Z,54.70
2022-08-29T15:17:07.928Z,54.43
2022-08-29T15:20:35.604Z,54.28
2022-08-29T15:23:35.330Z,56.04
2022-08-29T15:26:39.439Z,53.61
2022-08-29T15:29:42.130Z,52.78
2022-08-29T15:32:44.857Z,51.09
2022-08-29T15:35:51.989Z,50.83
2022-08-29T15:38:54.952Z,50.49
2022-08-29T15:42:01.027Z,51.44
2022-08-29T15:45:07.982Z,52.61
2022-08-29T15:48:11.572Z,53.72
2022-08-29T15:51:14.651Z,52.94
2022-08-29T15:54:18.683Z,49.96
2022-08-29T15:57:22.829Z,46.91
2022-08-29T16:00:30.693Z,45.63
2022-08-29T16:03:33.667Z,43.72
2022-08-29T16:06:36.441Z,41.64
2022-08-29T16:09:39.192Z,40.83
2022-08-29T16:12:43.274Z,41.50
2022-08-29T16:15:46.148Z,41.94
2022-08-29T16:18:49.016Z,43.70
2022-08-29T16:21:51.949Z,45.58
2022-08-29T16:24:54.982Z,47.01
2022-08-29T16:27:59.326Z,47.77
2022-08-29T16:31:02.498Z,47.71
2022-08-29T16:34:05.610Z,47.95
2022-08-29T16:37:08.418Z,47.19
2022-08-29T16:40:13.419Z,46.35
2022-08-29T16:43:17.777Z,45.56
2022-08-29T16:46:23.353Z,40.45
2022-08-29T16:49:26.058Z,37.11
2022-08-29T16:52:29.256Z,35.05
2022-08-29T16:55:33.170Z,33.79
2022-08-29T16:59:09.381Z,32.57
2022-08-29T17:02:12.405Z,31.45
2022-08-29T17:05:15.622Z,31.21
2022-08-29T17:08:17.399Z,30.92
2022-08-29T17:11:19.836Z,30.53
2022-08-29T17:14:24.135Z,30.17
2022-08-29T17:17:26.860Z,29.97
2022-08-29T17:20:30.804Z,29.71
2022-08-29T17:23:36.133Z,29.45
2022-08-29T17:26:41.386Z,29.07
2022-08-29T17:29:47.221Z,28.77
2022-08-29T17:32:49.881Z,28.49
2022-08-29T17:35:52.593Z,28.25
2022-08-29T17:38:55.524Z,27.99
2022-08-29T17:41:58.409Z,27.81
2022-08-29T17:45:02.540Z,27.67
2022-08-29T17:48:05.556Z,27.42
2022-08-29T17:51:08.321Z,27.15
2022-08-29T17:54:12.408Z,26.83
2022-08-29T17:57:17.409Z,26.66
2022-08-29T18:00:24.255Z,26.39
2022-08-29T18:03:26.932Z,26.23
2022-08-29T18:06:32.270Z,26.06
2022-08-29T18:09:35.173Z,25.91
2022-08-29T18:12:38.057Z,25.53
2022-08-29T18:15:43.147Z,25.24
2022-08-29T18:18:47.472Z,25.01
2022-08-29T18:21:51.440Z,24.76
2022-08-29T18:24:54.491Z,24.59
2022-08-29T18:27:57.191Z,24.45
2022-08-29T18:31:02.934Z,24.33
2022-08-29T18:34:06.076Z,24.14
2022-08-29T18:37:08.737Z,23.89
2022-08-29T18:40:12.505Z,23.72
2022-08-29T18:43:15.241Z,23.68
2022-08-29T18:46:19.837Z,23.54
2022-08-29T18:49:43.682Z,23.47
2022-08-29T18:52:46.722Z,23.26
2022-08-29T18:55:52.835Z,23.16
2022-08-29T18:58:58.853Z,23.07
2022-08-29T19:02:03.617Z,23.01
2022-08-29T19:05:07.442Z,23.00
2022-08-29T19:08:11.650Z,22.80
2022-08-29T19:11:14.849Z,22.77
2022-08-29T19:14:17.752Z,22.71
2022-08-29T19:17:21.834Z,22.66
2022-08-29T19:20:45.236Z,22.54
2022-08-29T19:23:52.411Z,22.48
2022-08-29T19:26:55.854Z,22.38
2022-08-29T19:30:00.367Z,22.37
2022-08-29T19:33:11.259Z,22.26
2022-08-29T19:36:14.711Z,22.17
2022-08-29T19:39:17.550Z,22.10
2022-08-29T19:42:20.178Z,22.05
2022-08-29T19:45:23.355Z,22.10
2022-08-29T19:48:27.815Z,22.08
2022-08-29T19:51:32.823Z,21.91
2022-08-29T19:54:35.614Z,21.87
2022-08-29T19:57:38.503Z,21.91
2022-08-29T20:00:42.089Z,21.88
2022-08-29T20:03:46.629Z,21.75
2022-08-29T20:06:49.441Z,21.63
2022-08-29T20:09:53.455Z,21.50
2022-08-29T20:12:58.237Z,21.41
2022-08-29T20:16:01.522Z,21.52
2022-08-29T20:19:06.190Z,21.45
2022-08-29T20:22:08.894Z,21.52
2022-08-29T20:25:12.046Z,21.44
2022-08-29T20:28:15.829Z,21.30
2022-08-29T20:31:20.594Z,21.32
2022-08-29T20:34:28.371Z,21.38
2022-08-29T20:37:31.219Z,21.45
2022-08-29T20:40:34.289Z,21.49
2022-08-29T20:43:39.117Z,21.32
2022-08-29T20:46:42.333Z,21.28
2022-08-29T20:49:46.474Z,21.30
2022-08-29T20:52:49.397Z,21.26
2022-08-29T20:55:52.136Z,21.19
2022-08-29T20:58:55.535Z,21.24
2022-08-29T21:01:58.423Z,21.22
2022-08-29T21:05:20.051Z,21.40
2022-08-29T21:08:25.291Z,21.52
2022-08-29T21:11:28.066Z,21.75
2022-08-29T21:14:30.929Z,21.79
2022-08-29T21:17:33.764Z,21.74
2022-08-29T21:20:53.590Z,21.70
2022-08-29T21:23:58.187Z,21.58
2022-08-29T21:27:00.851Z,21.47
2022-08-29T21:30:03.564Z,21.57
2022-08-29T21:33:08.425Z,21.70
2022-08-29T21:36:14.049Z,21.82
2022-08-29T21:39:28.752Z,21.82
2022-08-29T21:42:31.873Z,21.75
2022-08-29T21:45:35.126Z,21.73
2022-08-29T21:48:37.982Z,21.77
2022-08-29T21:51:42.072Z,21.64
2022-08-29T21:54:44.884Z,21.52
2022-08-29T21:57:55.944Z,21.38
2022-08-29T22:00:58.658Z,21.26
2022-08-29T22:04:02.968Z,21.15
2022-08-29T22:07:07.403Z,21.06
2022-08-29T22:10:12.152Z,21.04
2022-08-29T22:13:15.503Z,20.86
2022-08-29T22:16:30.416Z,20.79
2022-08-29T22:19:36.204Z,20.78
2022-08-29T22:22:40.315Z,20.74
2022-08-29T22:25:42.944Z,20.62
2022-08-29T22:28:46.058Z,20.61
2022-08-29T22:31:48.460Z,20.48
2022-08-29T22:34:51.202Z,20.34
2022-08-29T22:37:55.288Z,20.20
2022-08-29T22:40:58.040Z,20.16
2022-08-29T22:44:47.091Z,20.18
2022-08-29T22:47:25.601Z,20.11
2022-08-29T22:50:28.769Z,19.99
2022-08-29T22:53:32.602Z,19.95
2022-08-29T22:56:37.349Z,19.93
2022-08-29T22:59:41.469Z,19.89
2022-08-29T23:02:44.554Z,19.79
2022-08-29T23:05:47.290Z,19.76
2022-08-29T23:08:51.757Z,19.66
2022-08-29T23:11:54.495Z,19.59
2022-08-29T23:14:57.253Z,19.47
2022-08-29T23:17:59.997Z,19.54
2022-08-29T23:21:02.976Z,19.51
2022-08-29T23:24:09.629Z,19.45
2022-08-29T23:27:12.309Z,19.43
2022-08-29T23:30:15.390Z,19.38
2022-08-29T23:33:18.972Z,19.37
2022-08-29T23:36:22.581Z,19.29
2022-08-29T23:39:26.744Z,19.29
2022-08-29T23:42:30.767Z,19.27
2022-08-29T23:45:33.364Z,19.27
2022-08-29T23:48:36.353Z,19.19
2022-08-29T23:51:39.045Z,19.14
2022-08-29T23:54:43.046Z,19.08
2022-08-29T23:57:46.256Z,19.19
